Time;durP1;ratioP1;P1;durP2;ratioP2;P2;SDS_P1;SDS_P2;PMS_P1;PMS_P2;Temp;Humidity;BMP_temperature;BMP_pressure;BME280_temperature;BME280_humidity;BME280_pressure;Samples;Min_cycle;Max_cycle;Signal;HPM_P1;HPM_P2
2022/02/19 00:00:08;;;;;;;8.27;2.33;;;;;;;;;;4928302;29;20736;-73
2022/02/19 00:02:40;;;;;;;5.57;2.23;;;;;;;;;;4898680;29;20255;-73
2022/02/19 00:05:06;;;;;;;5.03;2.00;;;;;;;;;;4901076;29;20247;-72
2022/02/19 00:07:33;;;;;;;7.77;2.23;;;;;;;;;;4901030;29;20223;-73
2022/02/19 00:10:01;;;;;;;4.27;1.70;;;;;;;;;;4915347;29;20238;-73
2022/02/19 00:12:29;;;;;;;4.43;1.60;;;;;;;;;;4913311;29;20728;-72
2022/02/19 00:14:57;;;;;;;4.37;1.20;;;;;;;;;;4930505;29;20240;-72
2022/02/19 00:17:28;;;;;;;3.73;1.50;;;;;;;;;;4916889;28;20227;-74
2022/02/19 00:19:56;;;;;;;4.93;1.57;;;;;;;;;;4916684;29;20227;-73
2022/02/19 00:22:24;;;;;;;4.73;1.63;;;;;;;;;;4929487;29;20243;-72
2022/02/19 00:24:52;;;;;;;7.40;1.80;;;;;;;;;;4914928;29;20694;-73
2022/02/19 00:27:21;;;;;;;5.70;1.70;;;;;;;;;;4916244;28;20231;-72
2022/02/19 00:29:49;;;;;;;7.73;1.60;;;;;;;;;;4934295;29;20223;-72
2022/02/19 00:32:20;;;;;;;5.67;1.90;;;;;;;;;;4899647;29;20224;-73
2022/02/19 00:34:51;;;;;;;7.10;1.80;;;;;;;;;;4883223;29;20262;-72
2022/02/19 00:37:19;;;;;;;5.13;1.53;;;;;;;;;;4930101;28;20235;-73
2022/02/19 00:39:48;;;;;;;4.70;1.63;;;;;;;;;;4932545;29;20228;-72
2022/02/19 00:42:15;;;;;;;10.23;3.27;;;;;;;;;;4886948;29;20231;-72
2022/02/19 00:44:41;;;;;;;10.77;5.00;;;;;;;;;;4898553;29;20255;-73
2022/02/19 00:47:12;;;;;;;5.67;1.57;;;;;;;;;;4913247;28;20219;-73
2022/02/19 00:49:45;;;;;;;8.23;2.73;;;;;;;;;;4901810;29;20282;-73
2022/02/19 00:52:18;;;;;;;9.37;2.83;;;;;;;;;;4901686;29;20252;-73
2022/02/19 00:54:43;;;;;;;8.60;2.87;;;;;;;;;;4896837;29;20270;-73
2022/02/19 00:57:09;;;;;;;9.37;2.37;;;;;;;;;;4910181;28;20287;-73
2022/02/19 00:59:37;;;;;;;4.60;1.97;;;;;;;;;;4920203;29;20632;-72
2022/02/19 01:02:06;;;;;;;7.50;1.90;;;;;;;;;;4931730;29;20232;-72
2022/02/19 01:04:41;;;;;;;3.23;1.57;;;;;;;;;;4901988;29;20611;-72
2022/02/19 01:07:07;;;;;;;6.70;1.97;;;;;;;;;;4903738;28;20263;-73
2022/02/19 01:09:33;;;;;;;3.83;1.43;;;;;;;;;;4902935;29;20723;-73
2022/02/19 01:11:59;;;;;;;4.47;1.47;;;;;;;;;;4924909;29;20232;-73
2022/02/19 01:14:32;;;;;;;7.93;1.93;;;;;;;;;;4931976;29;20224;-73
2022/02/19 01:17:00;;;;;;;7.23;2.07;;;;;;;;;;4925399;29;20282;-73
2022/02/19 01:19:28;;;;;;;6.33;1.20;;;;;;;;;;4903440;28;20235;-73
2022/02/19 01:21:53;;;;;;;6.37;1.87;;;;;;;;;;4942915;28;20251;-72
2022/02/19 01:24:24;;;;;;;4.40;1.50;;;;;;;;;;4899857;29;20230;-72
2022/02/19 01:27:01;;;;;;;5.00;2.13;;;;;;;;;;4907817;29;20223;-72
2022/02/19 01:29:26;;;;;;;6.03;1.83;;;;;;;;;;4918419;28;20601;-71
2022/02/19 01:31:57;;;;;;;9.07;1.57;;;;;;;;;;4899423;29;20251;-72
2022/02/19 01:34:24;;;;;;;6.50;1.67;;;;;;;;;;4925455;29;20231;-72
2022/02/19 01:36:52;;;;;;;4.40;1.83;;;;;;;;;;4921239;29;20219;-71
2022/02/19 01:39:21;;;;;;;12.20;1.87;;;;;;;;;;4935067;28;20298;-70
2022/02/19 01:41:51;;;;;;;4.57;1.50;;;;;;;;;;4945219;28;20267;-71
2022/02/19 01:44:19;;;;;;;6.20;1.80;;;;;;;;;;4899793;29;20251;-72
2022/02/19 01:46:48;;;;;;;5.00;1.50;;;;;;;;;;4903238;29;20220;-71
2022/02/19 01:49:16;;;;;;;5.00;1.23;;;;;;;;;;4922650;28;20310;-71
2022/02/19 01:51:46;;;;;;;5.37;1.40;;;;;;;;;;4940909;29;20746;-73
2022/02/19 01:54:14;;;;;;;4.70;1.80;;;;;;;;;;4923337;29;20232;-73
2022/02/19 01:57:03;;;;;;;6.87;1.90;;;;;;;;;;4919072;29;20274;-73
2022/02/19 01:59:40;;;;;;;4.77;1.60;;;;;;;;;;4925294;29;20231;-72
2022/02/19 02:02:15;;;;;;;5.60;1.70;;;;;;;;;;4902059;28;20223;-72
2022/02/19 02:04:54;;;;;;;7.63;1.67;;;;;;;;;;4919388;29;20318;-71
2022/02/19 02:07:23;;;;;;;7.47;1.90;;;;;;;;;;4896608;29;20295;-71
2022/02/19 02:09:50;;;;;;;6.93;1.47;;;;;;;;;;4900279;29;20231;-72
2022/02/19 02:12:19;;;;;;;5.80;1.47;;;;;;;;;;4932483;29;20228;-73
2022/02/19 02:15:02;;;;;;;8.07;1.60;;;;;;;;;;4917488;29;20223;-71
2022/02/19 02:17:43;;;;;;;6.17;1.90;;;;;;;;;;4922476;29;20239;-71
2022/02/19 02:20:11;;;;;;;3.93;1.27;;;;;;;;;;4949809;28;20326;-71
2022/02/19 02:22:37;;;;;;;4.97;1.63;;;;;;;;;;4927976;29;20220;-71
2022/02/19 02:25:03;;;;;;;2.07;1.10;;;;;;;;;;4899338;29;20236;-70
2022/02/19 02:27:43;;;;;;;6.07;1.87;;;;;;;;;;4906290;29;20277;-70
2022/02/19 02:30:12;;;;;;;7.03;1.87;;;;;;;;;;4918147;28;20258;-71
2022/02/19 02:32:44;;;;;;;4.10;1.23;;;;;;;;;;4913062;29;20231;-70
2022/02/19 02:35:15;;;;;;;7.20;1.90;;;;;;;;;;4899020;29;20232;-71
2022/02/19 02:37:46;;;;;;;3.47;1.30;;;;;;;;;;4904309;29;20218;-71
2022/02/19 02:40:12;;;;;;;3.47;1.50;;;;;;;;;;4902034;28;20672;-71
2022/02/19 02:42:37;;;;;;;6.00;1.50;;;;;;;;;;4912607;29;20298;-71
2022/02/19 02:45:10;;;;;;;1.43;0.83;;;;;;;;;;4932403;28;20263;-71
2022/02/19 02:47:37;;;;;;;3.57;1.07;;;;;;;;;;4931990;29;20227;-71
2022/02/19 02:50:07;;;;;;;5.10;1.40;;;;;;;;;;4916815;29;20232;-71
2022/02/19 02:52:35;;;;;;;5.47;1.83;;;;;;;;;;4931822;29;20709;-71
2022/02/19 02:55:04;;;;;;;6.83;1.60;;;;;;;;;;4933334;28;20803;-72
2022/02/19 02:57:30;;;;;;;3.67;1.33;;;;;;;;;;4917390;29;20323;-71
2022/02/19 02:59:55;;;;;;;6.57;1.60;;;;;;;;;;4902144;29;20235;-71
2022/02/19 03:02:21;;;;;;;7.07;1.47;;;;;;;;;;4917100;28;20234;-71
2022/02/19 03:04:52;;;;;;;4.47;1.30;;;;;;;;;;4900116;29;20303;-72
2022/02/19 03:07:17;;;;;;;4.60;1.63;;;;;;;;;;4914053;29;20224;-71
2022/02/19 03:09:45;;;;;;;5.53;1.40;;;;;;;;;;4932249;28;20230;-71
2022/02/19 03:12:14;;;;;;;5.30;1.50;;;;;;;;;;4948295;28;20227;-71
2022/02/19 03:14:39;;;;;;;2.63;1.40;;;;;;;;;;4918071;29;20668;-71
2022/02/19 03:17:08;;;;;;;1.93;0.70;;;;;;;;;;4897583;29;20236;-71
2022/02/19 03:19:34;;;;;;;4.20;1.13;;;;;;;;;;4928029;29;20228;-70
2022/02/19 03:22:03;;;;;;;1.93;0.90;;;;;;;;;;4916190;29;20226;-71
2022/02/19 03:24:33;;;;;;;4.20;1.30;;;;;;;;;;4920220;29;20234;-72
2022/02/19 03:27:00;;;;;;;5.07;1.20;;;;;;;;;;4913936;29;20220;-71
2022/02/19 03:29:29;;;;;;;2.30;1.20;;;;;;;;;;4925548;29;20222;-71
2022/02/19 03:31:57;;;;;;;3.93;1.00;;;;;;;;;;4901576;29;20235;-70
2022/02/19 03:34:28;;;;;;;2.23;1.03;;;;;;;;;;4891356;29;20228;-72
2022/02/19 03:36:57;;;;;;;3.23;0.93;;;;;;;;;;4898232;29;20287;-71
2022/02/19 03:39:25;;;;;;;2.00;0.80;;;;;;;;;;4892024;28;20278;-71
2022/02/19 03:41:53;;;;;;;2.87;1.00;;;;;;;;;;4947674;28;20282;-70
2022/02/19 03:44:21;;;;;;;5.17;1.20;;;;;;;;;;4923712;28;20215;-71
2022/02/19 03:46:55;;;;;;;3.33;1.13;;;;;;;;;;4932736;29;20669;-71
2022/02/19 03:49:48;;;;;;;2.63;1.30;;;;;;;;;;4908346;29;20796;-71
2022/02/19 03:52:15;;;;;;;1.93;0.80;;;;;;;;;;4912354;29;20232;-71
2022/02/19 03:54:42;;;;;;;4.87;1.07;;;;;;;;;;4923526;29;20238;-71
2022/02/19 03:57:08;;;;;;;2.53;1.03;;;;;;;;;;4916580;28;20282;-71
2022/02/19 03:59:34;;;;;;;2.87;1.30;;;;;;;;;;4924252;29;20228;-71
2022/02/19 04:02:05;;;;;;;2.20;0.90;;;;;;;;;;4897555;29;20276;-72
2022/02/19 04:04:32;;;;;;;2.30;0.90;;;;;;;;;;4905557;29;20235;-72
2022/02/19 04:07:00;;;;;;;3.07;0.70;;;;;;;;;;4916517;29;20235;-71
2022/02/19 04:09:43;;;;;;;1.77;1.10;;;;;;;;;;4894154;29;20223;-72
2022/02/19 04:12:13;;;;;;;1.57;0.90;;;;;;;;;;4918014;28;20216;-71
2022/02/19 04:14:45;;;;;;;1.57;0.90;;;;;;;;;;4900677;29;20721;-72
2022/02/19 04:17:10;;;;;;;1.40;0.83;;;;;;;;;;4932204;28;20239;-71
2022/02/19 04:19:39;;;;;;;2.43;0.80;;;;;;;;;;4925986;29;20315;-72
2022/02/19 04:22:05;;;;;;;0.70;0.57;;;;;;;;;;4928742;29;20599;-70
2022/02/19 04:24:33;;;;;;;1.93;0.90;;;;;;;;;;4887262;29;20716;-72
2022/02/19 04:27:19;;;;;;;1.10;0.57;;;;;;;;;;4905611;28;20256;-72
2022/02/19 04:29:45;;;;;;;3.67;1.10;;;;;;;;;;4926510;29;20623;-71
2022/02/19 04:32:14;;;;;;;1.97;0.73;;;;;;;;;;4913346;29;20705;-71
2022/02/19 04:34:55;;;;;;;2.10;1.10;;;;;;;;;;4895084;29;20283;-71
2022/02/19 04:37:21;;;;;;;2.00;0.90;;;;;;;;;;4916177;29;21730;-72
2022/02/19 04:39:48;;;;;;;4.17;1.33;;;;;;;;;;4938300;28;20318;-71
2022/02/19 04:42:29;;;;;;;3.43;1.27;;;;;;;;;;4951845;28;20235;-71
2022/02/19 04:44:59;;;;;;;6.17;1.67;;;;;;;;;;4899782;29;20273;-71
2022/02/19 04:47:31;;;;;;;6.17;1.33;;;;;;;;;;4932380;29;20717;-71
2022/02/19 04:49:59;;;;;;;1.77;1.17;;;;;;;;;;4887679;29;20271;-71
2022/02/19 04:52:24;;;;;;;3.37;1.20;;;;;;;;;;4931819;29;20263;-70
2022/02/19 04:54:51;;;;;;;5.93;1.50;;;;;;;;;;4935306;29;20615;-69
2022/02/19 04:57:24;;;;;;;5.73;1.63;;;;;;;;;;4935805;28;20236;-70
2022/02/19 04:59:51;;;;;;;3.13;1.40;;;;;;;;;;4916984;29;20304;-70
2022/02/19 05:02:21;;;;;;;2.70;1.13;;;;;;;;;;4915786;29;20243;-71
2022/02/19 05:04:49;;;;;;;3.20;1.23;;;;;;;;;;4901800;29;20733;-70
2022/02/19 05:07:26;;;;;;;3.67;1.30;;;;;;;;;;4920733;29;20223;-70
2022/02/19 05:09:58;;;;;;;4.10;1.33;;;;;;;;;;4918065;29;20310;-70
2022/02/19 05:12:29;;;;;;;2.80;1.13;;;;;;;;;;4916893;29;20228;-70
2022/02/19 05:14:58;;;;;;;2.43;1.20;;;;;;;;;;4903393;29;20286;-70
2022/02/19 05:17:30;;;;;;;2.80;0.90;;;;;;;;;;4936642;29;20810;-70
2022/02/19 05:20:05;;;;;;;3.63;0.93;;;;;;;;;;4902760;29;20342;-70
2022/02/19 05:22:37;;;;;;;3.30;0.90;;;;;;;;;;4916873;29;20224;-69
2022/02/19 05:25:06;;;;;;;3.40;1.10;;;;;;;;;;4932885;28;20259;-69
2022/02/19 05:27:34;;;;;;;1.87;1.00;;;;;;;;;;4951377;28;20648;-71
2022/02/19 05:30:06;;;;;;;2.90;1.27;;;;;;;;;;4949813;28;20247;-69
2022/02/19 05:32:34;;;;;;;2.90;0.97;;;;;;;;;;4915921;29;20230;-69
2022/02/19 05:35:04;;;;;;;2.57;1.37;;;;;;;;;;4916299;29;20793;-69
2022/02/19 05:37:34;;;;;;;1.37;0.90;;;;;;;;;;4881583;29;20233;-70
2022/02/19 05:40:03;;;;;;;2.50;1.20;;;;;;;;;;4865223;29;20256;-70
2022/02/19 05:42:31;;;;;;;3.13;1.17;;;;;;;;;;4917632;29;20659;-70
2022/02/19 05:45:19;;;;;;;0.90;0.80;;;;;;;;;;4929891;29;20223;-70
2022/02/19 05:47:49;;;;;;;2.00;1.23;;;;;;;;;;4900922;29;20228;-70
2022/02/19 05:50:27;;;;;;;2.07;1.00;;;;;;;;;;4916422;29;20303;-71
2022/02/19 05:52:57;;;;;;;1.53;0.60;;;;;;;;;;4903590;29;20227;-71
2022/02/19 05:55:34;;;;;;;2.10;0.80;;;;;;;;;;4919256;29;20227;-70
2022/02/19 05:58:01;;;;;;;0.87;0.80;;;;;;;;;;4899845;29;20235;-70
2022/02/19 06:00:32;;;;;;;0.63;0.50;;;;;;;;;;4899471;29;20228;-70
2022/02/19 06:02:58;;;;;;;2.80;0.83;;;;;;;;;;4896588;29;20303;-71
2022/02/19 06:05:23;;;;;;;0.90;0.50;;;;;;;;;;4880512;29;20308;-71
2022/02/19 06:07:51;;;;;;;1.40;0.73;;;;;;;;;;4916998;29;20247;-71
2022/02/19 06:10:19;;;;;;;1.67;0.80;;;;;;;;;;4950178;28;20223;-71
2022/02/19 06:12:45;;;;;;;1.43;0.80;;;;;;;;;;4902273;29;20224;-71
2022/02/19 06:15:16;;;;;;;0.80;0.77;;;;;;;;;;4930279;29;20239;-71
2022/02/19 06:18:03;;;;;;;1.50;0.77;;;;;;;;;;4933341;29;20367;-70
2022/02/19 06:20:32;;;;;;;1.37;0.80;;;;;;;;;;4934424;29;20227;-70
2022/02/19 06:23:03;;;;;;;1.00;0.90;;;;;;;;;;4928244;28;20224;-70
2022/02/19 06:25:32;;;;;;;1.40;0.90;;;;;;;;;;4895080;29;20598;-71
2022/02/19 06:28:02;;;;;;;1.90;0.90;;;;;;;;;;4944711;28;20231;-69
2022/02/19 06:30:33;;;;;;;1.90;0.90;;;;;;;;;;4918224;29;20613;-69
2022/02/19 06:33:08;;;;;;;0.80;0.80;;;;;;;;;;4910748;29;20224;-70
2022/02/19 06:35:34;;;;;;;1.03;1.00;;;;;;;;;;4929943;29;20224;-71
2022/02/19 06:38:14;;;;;;;1.20;1.00;;;;;;;;;;4933313;28;20716;-71
2022/02/19 06:40:42;;;;;;;3.13;1.33;;;;;;;;;;4918796;29;20224;-71
2022/02/19 06:43:11;;;;;;;1.80;1.20;;;;;;;;;;4901290;29;20247;-72
2022/02/19 06:45:43;;;;;;;1.20;1.10;;;;;;;;;;4929193;29;20236;-72
2022/02/19 06:48:11;;;;;;;1.40;1.00;;;;;;;;;;4929448;28;20234;-72
2022/02/19 06:50:36;;;;;;;1.87;1.07;;;;;;;;;;4917631;29;20231;-72
2022/02/19 06:53:06;;;;;;;0.90;0.90;;;;;;;;;;4902991;29;20322;-71
2022/02/19 06:55:32;;;;;;;0.93;0.83;;;;;;;;;;4930796;29;20236;-71
2022/02/19 06:58:02;;;;;;;0.90;0.90;;;;;;;;;;4911847;29;20717;-71
2022/02/19 07:00:33;;;;;;;1.57;0.80;;;;;;;;;;4949310;28;20238;-71
2022/02/19 07:03:05;;;;;;;0.80;0.80;;;;;;;;;;4937472;28;20231;-71
2022/02/19 07:05:35;;;;;;;1.20;0.90;;;;;;;;;;4915392;29;20248;-72
2022/02/19 07:08:29;;;;;;;1.27;1.03;;;;;;;;;;4905371;28;20223;-72
2022/02/19 07:10:56;;;;;;;1.60;1.20;;;;;;;;;;4908276;29;20227;-72
2022/02/19 07:13:26;;;;;;;1.80;1.10;;;;;;;;;;4906801;28;20365;-73
2022/02/19 07:15:51;;;;;;;0.83;0.83;;;;;;;;;;4920001;29;20227;-72
2022/02/19 07:18:29;;;;;;;2.13;1.10;;;;;;;;;;4903551;29;20720;-72
2022/02/19 07:21:09;;;;;;;1.43;1.03;;;;;;;;;;4917606;28;20287;-72
2022/02/19 07:23:35;;;;;;;1.33;1.23;;;;;;;;;;4888335;29;20224;-72
2022/02/19 07:26:01;;;;;;;2.30;0.90;;;;;;;;;;4897935;29;20233;-72
2022/02/19 07:28:29;;;;;;;2.67;1.03;;;;;;;;;;4911492;29;20677;-72
2022/02/19 07:30:57;;;;;;;1.17;1.07;;;;;;;;;;4942509;28;20212;-72
2022/02/19 07:33:28;;;;;;;1.30;0.70;;;;;;;;;;4940360;28;20226;-71
2022/02/19 07:36:00;;;;;;;1.57;0.70;;;;;;;;;;4903116;29;20227;-71
2022/02/19 07:38:29;;;;;;;0.97;0.70;;;;;;;;;;4948579;28;20760;-71
2022/02/19 07:40:54;;;;;;;0.90;0.90;;;;;;;;;;4904535;29;20220;-71
2022/02/19 07:43:30;;;;;;;1.93;0.80;;;;;;;;;;4940663;28;20223;-71
2022/02/19 07:45:59;;;;;;;0.97;0.70;;;;;;;;;;4934723;28;20231;-71
2022/02/19 07:48:48;;;;;;;1.30;0.60;;;;;;;;;;4922583;29;20234;-72
2022/02/19 08:00:24;;;;;;;1.07;0.70;;;;;;;;;;4899876;29;20279;-72
2022/02/19 08:02:57;;;;;;;1.60;0.63;;;;;;;;;;4886133;29;20294;-71
2022/02/19 08:05:25;;;;;;;1.97;0.80;;;;;;;;;;4934100;28;20294;-73
2022/02/19 08:07:51;;;;;;;1.77;0.90;;;;;;;;;;4900796;29;20636;-72
2022/02/19 08:10:18;;;;;;;1.87;0.90;;;;;;;;;;4901675;29;20231;-71
2022/02/19 08:12:46;;;;;;;2.10;0.90;;;;;;;;;;4918136;29;20230;-72
2022/02/19 08:15:17;;;;;;;2.37;0.80;;;;;;;;;;4937481;28;20358;-73
2022/02/19 08:17:45;;;;;;;0.83;0.83;;;;;;;;;;4900600;29;20244;-72
2022/02/19 08:20:13;;;;;;;0.87;0.70;;;;;;;;;;4909764;29;20232;-72
2022/02/19 08:22:40;;;;;;;0.60;0.60;;;;;;;;;;4901499;29;20238;-72
2022/02/19 08:25:06;;;;;;;2.40;1.00;;;;;;;;;;4950668;28;20231;-73
2022/02/19 08:27:38;;;;;;;1.90;1.07;;;;;;;;;;4932286;29;20232;-73
2022/02/19 08:30:07;;;;;;;1.30;1.10;;;;;;;;;;4935379;28;20229;-73
2022/02/19 08:32:40;;;;;;;1.97;1.67;;;;;;;;;;4920950;29;20233;-73
2022/02/19 08:35:09;;;;;;;3.97;1.40;;;;;;;;;;4920674;29;20615;-72
2022/02/19 08:37:36;;;;;;;3.27;1.80;;;;;;;;;;4920545;28;20232;-72
2022/02/19 08:40:05;;;;;;;4.73;1.60;;;;;;;;;;4916008;28;20228;-73
2022/02/19 08:42:31;;;;;;;2.70;1.90;;;;;;;;;;4920609;29;20234;-73
2022/02/19 08:44:57;;;;;;;5.80;2.23;;;;;;;;;;4906392;29;20228;-73
2022/02/19 08:47:25;;;;;;;4.63;1.93;;;;;;;;;;4901539;29;20223;-74
2022/02/19 08:49:50;;;;;;;11.67;2.77;;;;;;;;;;4920930;28;20232;-72
2022/02/19 08:52:19;;;;;;;7.87;3.20;;;;;;;;;;4915704;29;20311;-72
2022/02/19 08:54:47;;;;;;;10.70;3.30;;;;;;;;;;4880082;29;20224;-73
2022/02/19 08:57:16;;;;;;;9.70;2.43;;;;;;;;;;4900036;29;20228;-72
2022/02/19 08:59:44;;;;;;;15.47;3.80;;;;;;;;;;4922462;29;20224;-72
2022/02/19 09:02:10;;;;;;;9.37;2.97;;;;;;;;;;4916897;29;20238;-73
2022/02/19 09:04:38;;;;;;;10.90;2.60;;;;;;;;;;4899296;29;20232;-73
2022/02/19 09:07:05;;;;;;;13.17;3.87;;;;;;;;;;4916518;29;20614;-74
2022/02/19 09:09:36;;;;;;;16.73;4.27;;;;;;;;;;4901358;29;20228;-71
2022/02/19 09:12:05;;;;;;;14.67;4.03;;;;;;;;;;4900645;29;20235;-72
2022/02/19 09:14:33;;;;;;;13.60;3.30;;;;;;;;;;4908641;29;20223;-72
2022/02/19 09:17:02;;;;;;;13.70;3.97;;;;;;;;;;4951964;28;20246;-73
2022/02/19 09:19:28;;;;;;;12.63;3.30;;;;;;;;;;4929476;29;20592;-74
2022/02/19 09:21:58;;;;;;;8.50;2.63;;;;;;;;;;4901066;29;20607;-73
2022/02/19 09:24:24;;;;;;;13.67;3.87;;;;;;;;;;4905169;28;20243;-73
2022/02/19 09:26:50;;;;;;;11.03;2.80;;;;;;;;;;4951705;28;20223;-72
2022/02/19 09:29:18;;;;;;;13.07;3.20;;;;;;;;;;4918187;28;20325;-73
2022/02/19 09:31:46;;;;;;;10.77;2.70;;;;;;;;;;4916865;29;20287;-75
2022/02/19 09:34:12;;;;;;;8.10;2.20;;;;;;;;;;4918232;28;20701;-74
2022/02/19 09:36:38;;;;;;;10.00;2.43;;;;;;;;;;4919941;29;20223;-74
2022/02/19 09:39:08;;;;;;;10.27;1.93;;;;;;;;;;4931453;28;20220;-73
2022/02/19 09:41:37;;;;;;;10.10;2.67;;;;;;;;;;4923847;29;20255;-74
2022/02/19 09:44:06;;;;;;;13.00;2.60;;;;;;;;;;4917145;29;20653;-72
2022/02/19 09:46:33;;;;;;;6.73;2.20;;;;;;;;;;4919935;29;20231;-72
2022/02/19 09:49:08;;;;;;;11.20;2.50;;;;;;;;;;4937341;28;20231;-73
2022/02/19 09:51:36;;;;;;;8.50;2.47;;;;;;;;;;4916005;29;20704;-73
2022/02/19 09:54:04;;;;;;;12.10;2.70;;;;;;;;;;4926039;29;20244;-73
2022/02/19 09:56:30;;;;;;;9.77;2.67;;;;;;;;;;4899559;29;20725;-74
2022/02/19 09:58:58;;;;;;;7.33;1.97;;;;;;;;;;4884521;29;20686;-73
2022/02/19 10:01:25;;;;;;;10.07;2.03;;;;;;;;;;4871054;29;20327;-75
2022/02/19 10:03:56;;;;;;;7.37;1.80;;;;;;;;;;4872032;29;20634;-73
2022/02/19 10:06:26;;;;;;;8.37;2.10;;;;;;;;;;4913083;28;24600;-73
2022/02/19 10:09:08;;;;;;;7.00;2.40;;;;;;;;;;4918593;29;20232;-75
2022/02/19 10:11:36;;;;;;;8.07;2.47;;;;;;;;;;4925787;29;20315;-73
2022/02/19 10:14:30;;;;;;;10.03;2.47;;;;;;;;;;4902323;29;20671;-75
2022/02/19 10:17:21;;;;;;;7.60;1.70;;;;;;;;;;4919528;29;20240;-77
2022/02/19 10:19:56;;;;;;;8.03;2.33;;;;;;;;;;4905515;29;20223;-75
2022/02/19 10:22:26;;;;;;;7.63;1.90;;;;;;;;;;4891525;29;20224;-73
2022/02/19 10:25:02;;;;;;;7.10;2.40;;;;;;;;;;4897353;29;20283;-81
2022/02/19 10:27:40;;;;;;;5.77;2.33;;;;;;;;;;4913156;29;20247;-80
2022/02/19 10:30:06;;;;;;;8.50;2.33;;;;;;;;;;4911243;29;20247;-75
2022/02/19 10:32:51;;;;;;;7.47;2.87;;;;;;;;;;4900671;29;20256;-73
2022/02/19 10:35:20;;;;;;;7.07;2.30;;;;;;;;;;4926002;28;20236;-74
2022/02/19 10:37:50;;;;;;;5.60;1.53;;;;;;;;;;4917902;29;20235;-75
2022/02/19 10:40:26;;;;;;;8.20;2.00;;;;;;;;;;4923853;29;20235;-77
2022/02/19 10:42:54;;;;;;;5.10;2.27;;;;;;;;;;4884299;29;20219;-73
2022/02/19 10:45:20;;;;;;;9.73;2.00;;;;;;;;;;4879837;29;20224;-75
2022/02/19 10:47:48;;;;;;;8.30;2.03;;;;;;;;;;4899313;29;20232;-72
2022/02/19 10:50:20;;;;;;;6.47;2.30;;;;;;;;;;4907102;29;20295;-74
2022/02/19 10:52:55;;;;;;;6.43;2.30;;;;;;;;;;4905962;29;20650;-74
2022/02/19 10:55:29;;;;;;;8.23;2.07;;;;;;;;;;4926703;28;20282;-75
2022/02/19 10:58:02;;;;;;;5.67;1.73;;;;;;;;;;4911638;29;20301;-75
2022/02/19 11:00:28;;;;;;;8.37;2.30;;;;;;;;;;4876367;29;20607;-76
2022/02/19 11:02:56;;;;;;;11.27;2.20;;;;;;;;;;4935787;29;20232;-76
2022/02/19 11:05:22;;;;;;;7.87;2.40;;;;;;;;;;4918768;28;20243;-74
2022/02/19 11:07:48;;;;;;;5.43;2.00;;;;;;;;;;4900332;29;20287;-75
2022/02/19 11:10:21;;;;;;;5.20;1.90;;;;;;;;;;4915201;29;20232;-75
2022/02/19 11:12:49;;;;;;;8.03;1.73;;;;;;;;;;4948682;28;20231;-77
2022/02/19 11:15:16;;;;;;;7.00;1.73;;;;;;;;;;4902524;28;20277;-74
2022/02/19 11:17:45;;;;;;;2.43;1.40;;;;;;;;;;4886822;29;20275;-73
2022/02/19 11:20:11;;;;;;;9.97;2.00;;;;;;;;;;4898819;29;20228;-74
2022/02/19 11:22:38;;;;;;;8.27;2.20;;;;;;;;;;4902374;29;20762;-75
2022/02/19 11:25:08;;;;;;;7.70;2.47;;;;;;;;;;4883942;28;20291;-74
2022/02/19 11:27:36;;;;;;;8.93;2.27;;;;;;;;;;4901131;29;20224;-74
2022/02/19 11:30:09;;;;;;;7.60;2.30;;;;;;;;;;4909345;29;20220;-76
2022/02/19 11:32:36;;;;;;;8.43;2.10;;;;;;;;;;4901347;29;20654;-75
2022/02/19 11:35:01;;;;;;;7.27;2.17;;;;;;;;;;4899438;29;20255;-74
2022/02/19 11:37:27;;;;;;;6.77;2.70;;;;;;;;;;4941591;28;20701;-73
2022/02/19 11:40:14;;;;;;;6.90;1.63;;;;;;;;;;4934289;29;20528;-74
2022/02/19 11:42:52;;;;;;;5.80;2.03;;;;;;;;;;4905763;29;20319;-72
2022/02/19 11:45:25;;;;;;;6.70;1.90;;;;;;;;;;4928984;29;20251;-74
2022/02/19 11:48:14;;;;;;;5.07;1.77;;;;;;;;;;4910831;29;20224;-72
2022/02/19 11:50:43;;;;;;;3.27;1.40;;;;;;;;;;4905671;29;20303;-73
2022/02/19 11:53:09;;;;;;;5.50;2.00;;;;;;;;;;4904734;29;20615;-74
2022/02/19 11:55:38;;;;;;;7.57;1.80;;;;;;;;;;4930116;28;20241;-75
2022/02/19 11:58:08;;;;;;;4.13;1.63;;;;;;;;;;4917510;29;20324;-73
2022/02/19 12:00:56;;;;;;;5.53;1.70;;;;;;;;;;4883445;29;20235;-75
2022/02/19 12:03:36;;;;;;;5.67;1.93;;;;;;;;;;4899256;29;20235;-74
2022/02/19 12:06:08;;;;;;;6.93;2.10;;;;;;;;;;4911001;29;20256;-73
2022/02/19 12:08:45;;;;;;;8.87;2.17;;;;;;;;;;4896671;29;20242;-72
2022/02/19 12:11:11;;;;;;;8.77;2.50;;;;;;;;;;4913232;29;20227;-73
2022/02/19 12:13:52;;;;;;;7.13;1.80;;;;;;;;;;4914495;29;20485;-74
2022/02/19 12:16:39;;;;;;;6.43;2.20;;;;;;;;;;4906452;29;20228;-75
2022/02/19 12:19:10;;;;;;;6.97;2.10;;;;;;;;;;4914940;29;20262;-74
2022/02/19 12:21:46;;;;;;;4.87;1.90;;;;;;;;;;4930180;29;20291;-74
2022/02/19 12:24:12;;;;;;;8.33;1.97;;;;;;;;;;4930950;29;20238;-72
2022/02/19 12:27:05;;;;;;;4.50;1.53;;;;;;;;;;4908921;29;20599;-73
2022/02/19 12:29:35;;;;;;;8.30;2.00;;;;;;;;;;4923484;29;20313;-73
2022/02/19 12:32:09;;;;;;;8.27;1.70;;;;;;;;;;4897747;29;20227;-75
2022/02/19 12:34:38;;;;;;;8.73;1.90;;;;;;;;;;4929823;29;20228;-72
2022/02/19 12:37:05;;;;;;;5.63;1.57;;;;;;;;;;4914175;28;20244;-72
2022/02/19 12:39:35;;;;;;;7.10;1.73;;;;;;;;;;4917642;29;20227;-73
2022/02/19 12:42:03;;;;;;;3.53;1.43;;;;;;;;;;4906667;29;20231;-72
2022/02/19 12:44:28;;;;;;;7.17;1.47;;;;;;;;;;4932884;29;20254;-72
2022/02/19 12:46:54;;;;;;;4.63;1.60;;;;;;;;;;4949159;28;20693;-73
2022/02/19 12:49:23;;;;;;;5.13;1.47;;;;;;;;;;4918733;29;20236;-72
2022/02/19 12:52:01;;;;;;;6.57;1.80;;;;;;;;;;4890694;29;20248;-74
2022/02/19 12:54:47;;;;;;;7.23;1.90;;;;;;;;;;4944591;28;20283;-73
2022/02/19 12:57:21;;;;;;;3.73;1.67;;;;;;;;;;4917460;29;20421;-72
2022/02/19 12:59:53;;;;;;;5.80;1.83;;;;;;;;;;4918552;29;20295;-74
2022/02/19 13:02:24;;;;;;;7.30;1.77;;;;;;;;;;4885213;29;20232;-74
2022/02/19 13:05:02;;;;;;;8.47;2.10;;;;;;;;;;4936828;29;20306;-75
2022/02/19 13:07:28;;;;;;;6.53;1.53;;;;;;;;;;4909238;29;20220;-76
2022/02/19 13:09:57;;;;;;;6.20;2.07;;;;;;;;;;4886479;29;20224;-74
2022/02/19 13:12:28;;;;;;;6.17;1.80;;;;;;;;;;4875600;29;20224;-72
2022/02/19 13:15:00;;;;;;;4.80;1.77;;;;;;;;;;4920229;29;20323;-72
2022/02/19 13:17:27;;;;;;;8.67;3.23;;;;;;;;;;4931061;29;20235;-72
2022/02/19 13:20:17;;;;;;;8.83;2.50;;;;;;;;;;4941950;28;20228;-72
2022/02/19 13:22:44;;;;;;;11.37;3.43;;;;;;;;;;4912317;29;20712;-73
2022/02/19 13:25:14;;;;;;;9.03;2.00;;;;;;;;;;4916438;29;20226;-73
2022/02/19 13:27:40;;;;;;;7.90;2.63;;;;;;;;;;4895505;29;20702;-73
2022/02/19 13:30:10;;;;;;;7.10;1.63;;;;;;;;;;4906349;29;20702;-73
2022/02/19 13:32:40;;;;;;;6.67;1.93;;;;;;;;;;4908195;29;20311;-71
2022/02/19 13:35:09;;;;;;;4.93;1.77;;;;;;;;;;4901310;29;20729;-72
2022/02/19 13:37:37;;;;;;;6.73;1.80;;;;;;;;;;4914117;29;20308;-71
2022/02/19 13:40:13;;;;;;;8.37;1.97;;;;;;;;;;4912353;29;20228;-73
2022/02/19 13:42:51;;;;;;;6.97;1.87;;;;;;;;;;4897063;29;20224;-72
2022/02/19 13:45:42;;;;;;;8.37;1.80;;;;;;;;;;4922231;29;20611;-72
2022/02/19 13:48:09;;;;;;;4.60;1.60;;;;;;;;;;4934214;28;20216;-74
2022/02/19 13:50:36;;;;;;;6.13;1.97;;;;;;;;;;4916453;29;20248;-78
2022/02/19 13:53:11;;;;;;;8.10;2.17;;;;;;;;;;4890624;29;20258;-74
2022/02/19 13:55:41;;;;;;;7.67;1.80;;;;;;;;;;4927209;29;20225;-72
2022/02/19 13:58:16;;;;;;;6.07;2.30;;;;;;;;;;4915113;29;20236;-72
2022/02/19 14:00:44;;;;;;;8.20;1.90;;;;;;;;;;4917451;29;20306;-73
2022/02/19 14:03:15;;;;;;;9.30;1.70;;;;;;;;;;4914844;29;20776;-72
2022/02/19 14:05:49;;;;;;;5.70;1.90;;;;;;;;;;4918728;29;20236;-71
2022/02/19 14:08:20;;;;;;;8.80;2.70;;;;;;;;;;4896908;29;20224;-72
2022/02/19 14:11:02;;;;;;;7.80;1.87;;;;;;;;;;4903022;29;20239;-73
2022/02/19 14:13:30;;;;;;;5.63;1.63;;;;;;;;;;4901351;29;20605;-72
2022/02/19 14:15:56;;;;;;;5.97;1.53;;;;;;;;;;4899242;29;20228;-73
2022/02/19 14:18:22;;;;;;;6.10;1.53;;;;;;;;;;4930140;29;20271;-73
2022/02/19 14:20:52;;;;;;;6.27;1.73;;;;;;;;;;4934686;28;20228;-72
2022/02/19 14:23:21;;;;;;;4.27;1.70;;;;;;;;;;4913367;29;20224;-72
2022/02/19 14:25:51;;;;;;;8.03;2.47;;;;;;;;;;4917710;29;20228;-73
2022/02/19 14:28:20;;;;;;;5.27;2.13;;;;;;;;;;4907058;29;20224;-74
2022/02/19 14:30:53;;;;;;;6.03;1.83;;;;;;;;;;4884569;29;20722;-72
2022/02/19 14:33:18;;;;;;;8.73;2.20;;;;;;;;;;4897813;29;20228;-71
2022/02/19 14:35:44;;;;;;;5.00;1.50;;;;;;;;;;4921656;29;20228;-72
2022/02/19 14:38:30;;;;;;;8.33;2.03;;;;;;;;;;4920382;29;20224;-72
2022/02/19 14:41:03;;;;;;;5.40;1.70;;;;;;;;;;4926394;29;20610;-72
2022/02/19 14:43:31;;;;;;;7.37;1.93;;;;;;;;;;4880164;29;20310;-72
2022/02/19 14:45:57;;;;;;;8.33;2.00;;;;;;;;;;4913949;29;20228;-72
2022/02/19 14:48:26;;;;;;;8.03;2.40;;;;;;;;;;4882875;29;20216;-72
2022/02/19 14:51:01;;;;;;;8.07;2.33;;;;;;;;;;4929647;29;20311;-72
2022/02/19 14:53:27;;;;;;;7.00;2.10;;;;;;;;;;4910337;29;20229;-71
2022/02/19 14:55:57;;;;;;;7.03;2.43;;;;;;;;;;4926533;29;20327;-71
2022/02/19 14:58:28;;;;;;;8.83;2.30;;;;;;;;;;4948402;28;20235;-71
2022/02/19 15:01:00;;;;;;;7.77;2.90;;;;;;;;;;4921325;29;20243;-71
2022/02/19 15:03:27;;;;;;;10.07;3.63;;;;;;;;;;4914299;29;20228;-71
2022/02/19 15:05:53;;;;;;;7.07;3.30;;;;;;;;;;4925844;29;20230;-71
2022/02/19 15:08:19;;;;;;;8.40;3.03;;;;;;;;;;4932581;28;20318;-71
2022/02/19 15:10:52;;;;;;;6.53;1.90;;;;;;;;;;4925472;28;20228;-71